Time;durP1;ratioP1;P1;durP2;ratioP2;P2;SDS_P1;SDS_P2;PMS_P1;PMS_P2;Temp;Humidity;BMP_temperature;BMP_pressure;BME280_temperature;BME280_humidity;BME280_pressure;Samples;Min_cycle;Max_cycle;Signal;HPM_P1;HPM_P2
2022/09/11 00:01:15;;;;;;;4.43;2.40;;;;;;;16.31;80.10;98941.94;4881830;29;20064;-67
2022/09/11 00:03:43;;;;;;;2.85;2.55;;;;;;;16.29;80.15;98933.38;4896432;29;20060;-66
2022/09/11 00:06:13;;;;;;;2.55;2.17;;;;;;;16.27;79.85;98939.97;4878110;29;20053;-66
2022/09/11 00:08:41;;;;;;;2.85;2.28;;;;;;;16.26;79.94;98941.00;4892880;29;20536;-66
2022/09/11 00:11:15;;;;;;;2.80;2.05;;;;;;;16.26;80.37;98943.69;4877211;29;20049;-66
2022/09/11 00:13:45;;;;;;;1.77;1.60;;;;;;;16.25;80.70;98942.88;4892989;29;20057;-66
2022/09/11 00:16:43;;;;;;;2.25;1.85;;;;;;;16.26;80.38;98947.16;4877235;29;20556;-65
2022/09/11 00:19:18;;;;;;;1.83;1.70;;;;;;;16.25;80.47;98947.41;4870097;29;20505;-65
2022/09/11 00:21:45;;;;;;;2.42;1.70;;;;;;;16.26;80.69;98952.50;4877707;29;20052;-65
2022/09/11 00:24:12;;;;;;;1.90;1.80;;;;;;;16.25;80.56;98942.88;4892823;29;20052;-65
2022/09/11 00:26:39;;;;;;;2.28;2.08;;;;;;;16.26;80.32;98941.00;4892750;29;20071;-65
2022/09/11 00:29:07;;;;;;;2.40;1.83;;;;;;;16.25;80.56;98948.22;4877565;29;20516;-65
2022/09/11 00:31:34;;;;;;;1.85;1.67;;;;;;;16.26;80.82;98943.69;4877734;29;20053;-65
2022/09/11 00:34:00;;;;;;;1.98;1.88;;;;;;;16.26;80.56;98938.34;4901247;29;20048;-66
2022/09/11 00:36:30;;;;;;;1.58;1.48;;;;;;;16.24;80.44;98937.75;4904694;29;20059;-65
2022/09/11 00:38:58;;;;;;;3.00;1.73;;;;;;;16.23;80.86;98941.47;4889222;29;20513;-66
2022/09/11 00:41:34;;;;;;;1.90;1.70;;;;;;;16.22;80.68;98940.66;4906050;29;20044;-65
2022/09/11 00:44:27;;;;;;;2.92;2.17;;;;;;;16.20;80.59;98949.91;4889611;29;20076;-66
2022/09/11 00:47:05;;;;;;;2.38;1.95;;;;;;;16.16;80.73;98946.06;4905123;29;20069;-66
2022/09/11 00:49:37;;;;;;;1.85;1.70;;;;;;;16.16;80.63;98949.53;4898976;29;20055;-65
2022/09/11 00:52:09;;;;;;;2.00;1.90;;;;;;;16.16;80.43;98946.88;4880552;29;20059;-65
2022/09/11 00:54:42;;;;;;;2.95;2.35;;;;;;;16.15;80.33;98952.44;4896990;29;20291;-66
2022/09/11 00:57:09;;;;;;;2.45;2.25;;;;;;;16.14;80.76;98948.16;4895493;29;20061;-66
2022/09/11 00:59:40;;;;;;;2.13;2.00;;;;;;;16.13;80.92;98960.69;4895559;29;20056;-66
2022/09/11 01:02:12;;;;;;;6.40;2.13;;;;;;;16.14;80.73;98956.97;4892646;29;20132;-66
2022/09/11 01:04:39;;;;;;;2.10;1.98;;;;;;;16.14;80.76;98956.97;4893186;29;20594;-66
2022/09/11 01:07:05;;;;;;;2.35;2.15;;;;;;;16.12;80.85;98959.03;4896738;29;20051;-66
2022/09/11 01:09:32;;;;;;;1.77;1.67;;;;;;;16.12;80.85;98961.69;4896973;29;20048;-66
2022/09/11 01:12:22;;;;;;;1.40;1.30;;;;;;;16.13;81.16;98967.88;4895966;29;20404;-66
2022/09/11 01:15:04;;;;;;;1.95;1.63;;;;;;;16.10;81.31;98972.59;4895981;29;20481;-66
2022/09/11 01:17:46;;;;;;;1.65;1.55;;;;;;;16.10;80.81;98967.25;4895501;29;20436;-66
2022/09/11 01:20:51;;;;;;;1.60;1.50;;;;;;;16.09;80.88;98968.31;4895456;29;20488;-66
2022/09/11 01:23:45;;;;;;;1.65;1.55;;;;;;;16.07;81.07;98964.22;4898798;29;20048;-66
2022/09/11 01:26:53;;;;;;;2.13;1.88;;;;;;;16.03;80.98;98966.53;4900223;29;20044;-66
2022/09/11 01:29:34;;;;;;;2.15;1.40;;;;;;;16.01;81.03;98968.59;4900031;29;20052;-66
2022/09/11 01:32:18;;;;;;;1.80;1.70;;;;;;;16.01;81.17;98976.59;4899043;29;20052;-66
2022/09/11 01:34:54;;;;;;;1.65;1.55;;;;;;;16.02;81.04;98977.41;4883161;29;20049;-66
2022/09/11 01:37:36;;;;;;;1.40;1.30;;;;;;;16.01;81.38;98975.81;4898478;29;20680;-66
2022/09/11 01:40:11;;;;;;;0.90;0.90;;;;;;;16.02;81.29;98978.22;4898852;29;20045;-67
2022/09/11 01:42:42;;;;;;;0.90;0.90;;;;;;;16.03;81.41;98971.84;4898963;29;20052;-66
2022/09/11 01:45:12;;;;;;;1.30;1.20;;;;;;;16.04;81.23;98962.00;4898743;29;20049;-66
2022/09/11 01:47:42;;;;;;;1.40;1.30;;;;;;;16.04;81.12;98962.84;4898085;29;20100;-67
2022/09/11 01:50:12;;;;;;;1.00;1.00;;;;;;;16.04;81.50;98962.00;4898550;29;20480;-67
2022/09/11 01:52:52;;;;;;;0.82;0.82;;;;;;;16.05;81.38;98968.97;4898746;29;20063;-66
2022/09/11 01:55:27;;;;;;;0.90;0.90;;;;;;;16.04;81.62;98976.16;4883118;29;20085;-66
2022/09/11 01:58:02;;;;;;;0.82;0.82;;;;;;;16.09;81.37;98975.50;4898235;29;20060;-66
2022/09/11 02:00:34;;;;;;;0.80;0.80;;;;;;;16.12;81.53;98971.56;4868341;29;20433;-66
2022/09/11 02:03:21;;;;;;;1.10;1.00;;;;;;;16.14;81.04;98964.97;4883035;29;20057;-66
2022/09/11 02:05:53;;;;;;;1.10;1.00;;;;;;;16.18;81.48;98970.66;4882846;29;20049;-66
2022/09/11 02:08:38;;;;;;;1.88;0.80;;;;;;;16.22;81.41;98977.19;4897842;29;20132;-66
2022/09/11 02:11:11;;;;;;;1.40;1.20;;;;;;;16.24;80.86;98977.75;4883256;29;20494;-66
2022/09/11 02:14:16;;;;;;;1.05;1.00;;;;;;;16.25;80.83;98977.56;4883273;29;20420;-66
2022/09/11 02:17:12;;;;;;;0.70;0.70;;;;;;;16.27;80.90;98983.47;4897957;29;20048;-66
2022/09/11 02:19:40;;;;;;;0.77;0.77;;;;;;;16.30;80.69;98988.34;4869608;29;20509;-66
2022/09/11 02:22:06;;;;;;;0.70;0.70;;;;;;;16.30;80.73;98993.69;4897988;29;20487;-66
2022/09/11 02:24:36;;;;;;;0.80;0.80;;;;;;;16.33;80.87;98989.75;4882786;29;20526;-66
2022/09/11 02:27:07;;;;;;;0.80;0.80;;;;;;;16.37;80.88;98992.78;4898887;29;20499;-66
2022/09/11 02:29:34;;;;;;;0.80;0.80;;;;;;;16.40;80.70;98989.66;4899494;29;20051;-66
2022/09/11 02:32:02;;;;;;;1.58;1.00;;;;;;;16.41;80.50;99001.94;4895392;29;20057;-66
2022/09/11 02:34:33;;;;;;;0.93;0.93;;;;;;;16.41;80.45;99000.13;4891869;29;20073;-66
2022/09/11 02:37:07;;;;;;;1.63;1.33;;;;;;;16.43;80.29;98991.88;4897364;29;20044;-66
2022/09/11 02:40:09;;;;;;;1.13;1.02;;;;;;;16.45;80.48;98997.78;4897702;29;20076;-66
2022/09/11 02:42:43;;;;;;;0.75;0.75;;;;;;;16.47;80.46;99003.72;4897645;29;20052;-66
2022/09/11 02:45:28;;;;;;;0.82;0.82;;;;;;;16.47;80.31;98999.22;4897737;29;20052;-66
2022/09/11 02:48:23;;;;;;;0.70;0.70;;;;;;;16.48;80.52;99003.50;4897167;29;20096;-66
2022/09/11 02:51:31;;;;;;;0.77;0.77;;;;;;;16.49;80.87;99004.31;4897352;29;20104;-66
2022/09/11 02:54:21;;;;;;;0.90;0.90;;;;;;;16.50;80.31;99000.63;4889602;29;20147;-66
2022/09/11 02:57:05;;;;;;;0.70;0.70;;;;;;;16.50;80.57;99004.09;4897402;29;20092;-66
2022/09/11 02:59:38;;;;;;;1.58;1.10;;;;;;;16.48;80.02;99000.03;4882108;29;20086;-66
2022/09/11 03:02:11;;;;;;;1.30;1.20;;;;;;;16.46;80.07;98999.44;4897668;29;20049;-66
2022/09/11 03:04:39;;;;;;;1.30;1.20;;;;;;;16.43;80.47;98994.56;4897031;29;20076;-66
2022/09/11 03:07:05;;;;;;;2.35;1.90;;;;;;;16.41;80.53;98994.78;4896813;29;20398;-66
2022/09/11 03:09:33;;;;;;;1.40;1.30;;;;;;;16.40;80.36;98995.00;4881877;29;20051;-65
2022/09/11 03:12:06;;;;;;;1.95;1.85;;;;;;;16.38;80.41;98999.75;4882494;29;20147;-66
2022/09/11 03:14:35;;;;;;;5.13;2.53;;;;;;;16.34;80.50;98989.53;4882011;29;20147;-66
2022/09/11 03:17:03;;;;;;;2.33;2.13;;;;;;;16.31;80.46;98989.97;4896747;29;20052;-66
2022/09/11 03:19:30;;;;;;;2.70;2.50;;;;;;;16.27;80.65;98996.78;4881280;29;20053;-66
2022/09/11 03:21:57;;;;;;;2.50;2.33;;;;;;;16.24;80.52;98994.56;4897401;29;20058;-66
2022/09/11 03:24:25;;;;;;;2.60;2.22;;;;;;;16.21;80.95;98999.56;4897028;29;20128;-66
2022/09/11 03:26:51;;;;;;;2.35;2.15;;;;;;;16.20;81.24;98998.72;4881620;29;20135;-66
2022/09/11 03:29:18;;;;;;;2.80;2.47;;;;;;;16.21;81.13;98996.91;4896929;29;20048;-65
2022/09/11 03:31:46;;;;;;;3.83;3.10;;;;;;;16.22;81.14;99001.19;4896687;29;20075;-66
2022/09/11 03:34:13;;;;;;;2.83;2.47;;;;;;;16.20;81.11;99006.72;4889917;29;20048;-66
2022/09/11 03:36:40;;;;;;;2.38;2.05;;;;;;;16.21;81.18;98996.91;4899026;29;20044;-66
2022/09/11 03:39:06;;;;;;;2.70;2.50;;;;;;;16.17;80.94;98999.19;4898253;29;20064;-66
2022/09/11 03:41:34;;;;;;;2.05;1.80;;;;;;;16.16;81.37;98999.41;4896998;29;20048;-66
2022/09/11 03:44:03;;;;;;;2.83;2.45;;;;;;;16.16;81.55;98999.41;4881543;29;20055;-66
2022/09/11 03:46:31;;;;;;;1.73;1.63;;;;;;;16.16;81.44;99002.06;4896570;29;20557;-66
2022/09/11 03:48:58;;;;;;;2.15;2.00;;;;;;;16.18;81.38;99014.16;4880960;29;20056;-66
2022/09/11 03:51:25;;;;;;;2.00;1.90;;;;;;;16.19;81.56;99017.63;4897549;29;20062;-66
2022/09/11 03:53:52;;;;;;;1.75;1.65;;;;;;;16.23;81.25;99019.63;4900344;29;20084;-66
2022/09/11 03:56:20;;;;;;;1.67;1.58;;;;;;;16.26;81.25;99016.50;4899681;29;20049;-66
2022/09/11 03:58:47;;;;;;;1.90;1.55;;;;;;;16.29;81.06;99025.94;4899845;29;20040;-66
2022/09/11 04:01:18;;;;;;;2.27;2.07;;;;;;;16.29;81.32;99029.41;5336757;23;20268;-70
2022/09/11 04:03:46;;;;;;;1.88;1.70;;;;;;;16.30;81.25;99036.38;4878983;29;20116;-69
2022/09/11 04:06:33;;;;;;;1.98;1.83;;;;;;;16.32;81.35;99038.81;4895850;29;20053;-68
2022/09/11 04:09:01;;;;;;;1.45;1.35;;;;;;;16.32;81.05;99033.47;4896882;29;20048;-68
2022/09/11 04:11:29;;;;;;;1.50;1.40;;;;;;;16.30;81.19;99033.69;4898592;29;20080;-68
2022/09/11 04:14:02;;;;;;;1.08;1.08;;;;;;;16.32;81.77;99038.81;4899317;29;20052;-68
2022/09/11 04:16:31;;;;;;;1.08;1.08;;;;;;;16.37;81.27;99038.13;4896375;29;20394;-68
2022/09/11 04:19:00;;;;;;;1.10;1.10;;;;;;;16.38;81.20;99042.44;4896437;29;20087;-68
2022/09/11 04:21:28;;;;;;;1.15;1.15;;;;;;;16.40;81.45;99051.03;4896349;29;20059;-68
2022/09/11 04:23:56;;;;;;;1.67;1.58;;;;;;;16.41;81.20;99044.66;4896122;29;20496;-68
2022/09/11 04:26:27;;;;;;;3.85;2.10;;;;;;;16.40;80.97;99049.16;4896018;29;20048;-68
2022/09/11 04:29:00;;;;;;;1.40;1.30;;;;;;;16.41;81.15;99041.97;4895841;29;20504;-68
2022/09/11 04:31:27;;;;;;;0.90;0.90;;;;;;;16.41;81.40;99044.66;4895895;29;20049;-68
2022/09/11 04:33:55;;;;;;;1.23;1.08;;;;;;;16.41;80.90;99045.47;4880210;29;20151;-68
2022/09/11 04:36:28;;;;;;;0.85;0.85;;;;;;;16.42;81.19;99040.97;4880970;29;20057;-68
2022/09/11 04:38:57;;;;;;;1.40;1.30;;;;;;;16.40;81.06;99038.50;4895759;29;20048;-68
2022/09/11 04:41:24;;;;;;;1.83;1.30;;;;;;;16.40;81.11;99043.84;4895759;29;20048;-68
2022/09/11 04:43:56;;;;;;;1.30;1.20;;;;;;;16.37;80.89;99038.13;4895887;29;20101;-68
2022/09/11 04:46:29;;;;;;;1.45;1.30;;;;;;;16.34;81.20;99039.41;4896875;29;20049;-68
2022/09/11 04:48:58;;;;;;;1.50;1.40;;;;;;;16.34;81.10;99045.56;4895666;29;20049;-68
2022/09/11 04:51:28;;;;;;;1.50;1.40;;;;;;;16.34;81.05;99042.88;4896060;29;20148;-69
2022/09/11 04:53:57;;;;;;;1.27;1.20;;;;;;;16.33;81.17;99046.59;4895836;29;20072;-68
2022/09/11 04:56:31;;;;;;;1.85;1.75;;;;;;;16.32;80.70;99052.94;4881121;29;20056;-68
2022/09/11 04:59:00;;;;;;;1.40;1.30;;;;;;;16.31;80.81;99045.19;4900735;29;20037;-68
2022/09/11 05:01:30;;;;;;;1.30;1.20;;;;;;;16.32;81.23;99052.94;4899332;29;20084;-68
2022/09/11 05:03:59;;;;;;;1.30;1.20;;;;;;;16.33;81.17;99059.13;4899446;29;20080;-68
2022/09/11 05:06:29;;;;;;;1.00;1.00;;;;;;;16.35;80.93;99068.53;4900534;29;20055;-69
2022/09/11 05:09:04;;;;;;;2.38;1.70;;;;;;;16.36;80.41;99066.66;4899504;29;20461;-68
2022/09/11 05:11:34;;;;;;;1.25;1.15;;;;;;;16.35;80.96;99067.72;4899240;29;20068;-68
2022/09/11 05:14:01;;;;;;;0.85;0.85;;;;;;;16.35;81.04;99071.19;4899341;29;20057;-69
2022/09/11 05:16:33;;;;;;;0.95;0.85;;;;;;;16.37;81.10;99075.47;4899260;29;20524;-68
2022/09/11 05:19:01;;;;;;;1.15;1.05;;;;;;;16.34;81.15;99074.91;4899262;29;20702;-68
2022/09/11 05:21:27;;;;;;;0.75;0.70;;;;;;;16.33;80.99;99086.63;4899389;29;20056;-68
2022/09/11 05:23:56;;;;;;;0.93;0.85;;;;;;;16.32;80.70;99087.63;4899337;29;20386;-68
2022/09/11 05:26:27;;;;;;;1.00;0.90;;;;;;;16.30;80.87;99083.56;4883775;29;20071;-68
2022/09/11 05:28:59;;;;;;;0.77;0.77;;;;;;;16.27;81.15;99084.81;4899508;29;20072;-68
2022/09/11 05:31:27;;;;;;;1.50;1.40;;;;;;;16.26;81.09;99082.38;4898927;29;20052;-68
2022/09/11 05:33:55;;;;;;;2.00;1.90;;;;;;;16.24;80.75;99093.25;4898931;29;20064;-68
2022/09/11 05:36:22;;;;;;;2.88;2.58;;;;;;;16.21;80.66;99098.25;4898946;29;20049;-68
2022/09/11 05:38:49;;;;;;;1.70;1.60;;;;;;;16.18;80.75;99099.50;4883477;29;20072;-68
2022/09/11 05:41:17;;;;;;;1.45;1.35;;;;;;;16.19;81.10;99097.63;4898850;29;20056;-68
2022/09/11 05:43:44;;;;;;;1.45;1.35;;;;;;;16.19;81.18;99108.31;4900203;29;20113;-68
2022/09/11 05:46:15;;;;;;;1.15;1.10;;;;;;;16.19;81.18;99119.78;4898870;29;20055;-68
2022/09/11 05:48:44;;;;;;;1.10;1.00;;;;;;;16.18;81.23;99115.50;4898548;29;20412;-68
2022/09/11 05:51:20;;;;;;;0.90;0.90;;;;;;;16.20;80.83;99123.28;4898789;29;20487;-68
2022/09/11 05:53:52;;;;;;;1.40;1.30;;;;;;;16.19;80.83;99117.13;4898963;29;20126;-68
2022/09/11 05:56:21;;;;;;;1.73;1.63;;;;;;;16.16;80.98;99124.75;4883306;29;20423;-69
2022/09/11 05:58:51;;;;;;;1.17;1.15;;;;;;;16.18;80.95;99131.50;4899098;29;20053;-70
2022/09/11 06:01:25;;;;;;;1.70;1.60;;;;;;;16.18;80.70;99123.50;4898279;29;20444;-71
2022/09/11 06:04:02;;;;;;;3.17;2.28;;;;;;;16.19;80.43;99118.97;4898394;29;20504;-69
2022/09/11 06:06:29;;;;;;;2.65;2.42;;;;;;;16.18;80.85;99115.50;4898189;29;20059;-69
2022/09/11 06:08:56;;;;;;;2.08;1.95;;;;;;;16.19;80.50;99121.66;4898259;29;20040;-69
2022/09/11 06:11:24;;;;;;;2.85;2.65;;;;;;;16.24;80.53;99138.59;4898322;29;20561;-69
2022/09/11 06:13:51;;;;;;;2.20;2.00;;;;;;;16.29;80.59;99132.63;4898384;29;20048;-69
2022/09/11 06:16:22;;;;;;;2.47;2.28;;;;;;;16.33;80.29;99131.97;4882572;29;20139;-69
2022/09/11 06:18:50;;;;;;;2.50;2.28;;;;;;;16.37;80.17;99136.84;4882740;29;20072;-69
2022/09/11 06:21:22;;;;;;;2.55;2.35;;;;;;;16.38;80.16;99131.31;4898121;29;20059;-69
2022/09/11 06:23:56;;;;;;;1.90;1.80;;;;;;;16.41;80.42;99133.53;4898267;29;20557;-69
2022/09/11 06:26:25;;;;;;;1.90;1.80;;;;;;;16.48;80.28;99142.25;4897945;29;20107;-69
2022/09/11 06:28:53;;;;;;;1.83;1.73;;;;;;;16.55;80.01;99142.19;4897945;29;20175;-69
2022/09/11 06:31:24;;;;;;;1.73;1.63;;;;;;;16.62;80.32;99140.28;4897792;29;20085;-69
2022/09/11 06:33:53;;;;;;;2.63;2.42;;;;;;;16.71;80.21;99143.44;4897856;29;20096;-69
2022/09/11 06:36:31;;;;;;;1.83;1.73;;;;;;;16.76;79.66;99143.63;4897832;29;20045;-69
2022/09/11 06:39:02;;;;;;;3.10;2.80;;;;;;;16.82;79.43;99148.88;4898187;29;20501;-69
2022/09/11 06:41:31;;;;;;;4.57;4.15;;;;;;;16.85;79.60;99147.59;4882838;29;20424;-68
2022/09/11 06:44:04;;;;;;;4.60;4.20;;;;;;;16.91;79.81;99152.06;4897808;29;20136;-69
2022/09/11 06:46:30;;;;;;;2.97;2.78;;;;;;;16.98;79.80;99149.28;4897648;29;20048;-69
2022/09/11 06:48:59;;;;;;;2.65;2.45;;;;;;;17.04;79.52;99151.06;4897540;29;20048;-70
2022/09/11 06:51:27;;;;;;;1.92;1.83;;;;;;;17.13;79.59;99156.91;4897575;29;20065;-68
2022/09/11 06:53:56;;;;;;;3.33;3.13;;;;;;;17.16;79.34;99151.94;4897635;29;20100;-68
2022/09/11 06:56:27;;;;;;;3.10;2.85;;;;;;;17.16;79.52;99151.94;4897190;29;20056;-68
2022/09/11 06:58:55;;;;;;;3.85;3.42;;;;;;;17.20;79.10;99154.97;4882184;29;20052;-68
2022/09/11 07:01:24;;;;;;;4.75;4.35;;;;;;;17.22;78.89;99163.56;4881930;29;20056;-69
2022/09/11 07:03:58;;;;;;;3.67;3.38;;;;;;;17.26;78.91;99162.06;4897345;29;20062;-69
2022/09/11 07:06:27;;;;;;;2.60;2.40;;;;;;;17.34;79.20;99165.22;4896907;29;20048;-69
2022/09/11 07:09:01;;;;;;;1.98;1.85;;;;;;;17.44;78.91;99167.34;4881896;29;20068;-69
2022/09/11 07:11:49;;;;;;;2.47;2.30;;;;;;;17.50;78.51;99168.28;4884495;29;20481;-68
2022/09/11 07:14:20;;;;;;;2.85;2.65;;;;;;;17.51;77.84;99168.09;4897197;29;20147;-68
2022/09/11 07:16:49;;;;;;;3.78;3.13;;;;;;;17.54;78.21;99172.13;4881629;29;20394;-69
2022/09/11 07:19:17;;;;;;;3.47;3.17;;;;;;;17.55;77.79;99177.28;4896628;29;20130;-69
2022/09/11 07:21:44;;;;;;;2.83;2.60;;;;;;;17.58;78.07;99181.31;4896911;29;20052;-69
2022/09/11 07:24:10;;;;;;;3.92;3.63;;;;;;;17.60;77.41;99179.25;4881559;29;20048;-69
2022/09/11 07:26:39;;;;;;;2.72;2.53;;;;;;;17.64;77.85;99184.97;4896785;29;20052;-69
2022/09/11 07:29:11;;;;;;;2.85;2.65;;;;;;;17.69;77.35;99183.22;4897029;29;20064;-69
2022/09/11 07:31:38;;;;;;;3.95;3.58;;;;;;;17.79;77.16;99182.69;4896735;29;20044;-68
2022/09/11 07:34:05;;;;;;;5.13;4.68;;;;;;;17.91;77.02;99186.19;4896395;29;20434;-69
2022/09/11 07:36:34;;;;;;;4.20;3.85;;;;;;;17.96;76.70;99182.81;4896543;29;20049;-70
2022/09/11 07:39:03;;;;;;;4.35;3.95;;;;;;;18.00;76.61;99189.31;4896821;29;20568;-70
2022/09/11 07:41:36;;;;;;;4.57;4.18;;;;;;;18.05;76.01;99189.47;4896758;29;20045;-69
2022/09/11 07:44:11;;;;;;;4.60;4.20;;;;;;;18.09;76.14;99193.31;4896675;29;20058;-70
2022/09/11 07:46:40;;;;;;;4.30;3.90;;;;;;;18.17;75.87;99194.84;4897782;29;20056;-69
2022/09/11 07:49:09;;;;;;;3.53;3.22;;;;;;;18.22;75.75;99193.06;4896613;29;20177;-69
2022/09/11 07:51:37;;;;;;;4.18;3.78;;;;;;;18.26;75.34;99190.75;4896729;29;20508;-70
2022/09/11 07:54:05;;;;;;;4.13;3.72;;;;;;;18.28;75.45;99194.81;4896811;29;20076;-68
2022/09/11 07:56:35;;;;;;;4.00;3.60;;;;;;;18.36;75.29;99200.88;4896591;29;20044;-69
2022/09/11 07:59:07;;;;;;;3.97;3.60;;;;;;;18.39;74.85;99201.22;4897019;29;20564;-70
2022/09/11 08:01:36;;;;;;;4.07;3.67;;;;;;;18.49;74.98;99197.94;4896451;29;20048;-69
2022/09/11 08:04:08;;;;;;;3.83;3.53;;;;;;;18.65;74.57;99199.09;4896309;29;20489;-69
2022/09/11 08:06:37;;;;;;;3.30;3.00;;;;;;;18.83;73.88;99198.97;4897657;29;20111;-69
2022/09/11 08:09:13;;;;;;;3.13;2.83;;;;;;;18.90;73.91;99207.72;4896738;29;20283;-69
2022/09/11 08:11:47;;;;;;;2.63;2.42;;;;;;;18.95;73.69;99207.81;4882308;29;20072;-70
2022/09/11 08:14:16;;;;;;;2.90;2.60;;;;;;;19.01;73.71;99208.72;4898492;29;20054;-70
2022/09/11 08:16:45;;;;;;;2.72;2.47;;;;;;;19.10;73.21;99206.47;4898605;29;20304;-69
2022/09/11 08:19:17;;;;;;;4.57;3.33;;;;;;;19.17;72.72;99201.78;4897926;29;20143;-71
2022/09/11 08:21:47;;;;;;;3.60;3.30;;;;;;;19.21;71.83;99205.63;4882707;29;20059;-70
2022/09/11 08:24:16;;;;;;;5.18;3.40;;;;;;;19.29;72.02;99205.25;4900424;29;20417;-68
2022/09/11 08:26:44;;;;;;;2.90;2.70;;;;;;;19.40;72.28;99208.94;4899984;29;20459;-70
2022/09/11 08:29:15;;;;;;;3.17;2.97;;;;;;;19.48;71.36;99205.88;4896341;29;20096;-70
2022/09/11 08:31:42;;;;;;;3.78;3.33;;;;;;;19.48;71.24;99211.22;4895575;29;20053;-69
2022/09/11 08:34:09;;;;;;;3.13;2.83;;;;;;;19.46;71.16;99210.63;4895916;29;20131;-70
2022/09/11 08:36:37;;;;;;;3.80;3.47;;;;;;;19.38;71.02;99211.84;4880637;29;20044;-71
2022/09/11 08:39:07;;;;;;;3.25;3.03;;;;;;;19.36;71.18;99205.91;4896269;29;20402;-72
2022/09/11 08:41:46;;;;;;;3.78;2.70;;;;;;;19.30;70.94;99209.53;4896022;29;20073;-71
2022/09/11 08:44:16;;;;;;;3.35;3.05;;;;;;;19.21;71.09;99206.44;4896076;29;20581;-71
2022/09/11 08:46:47;;;;;;;2.80;2.60;;;;;;;19.25;70.95;99202.22;4895896;29;20079;-68
2022/09/11 08:49:23;;;;;;;2.30;2.13;;;;;;;19.32;71.19;99215.50;4896892;29;20048;-69
2022/09/11 08:51:54;;;;;;;2.67;2.47;;;;;;;19.41;70.64;99207.88;4896713;29;20048;-69
2022/09/11 08:54:36;;;;;;;2.63;2.42;;;;;;;19.42;70.69;99204.94;4896078;29;20053;-70
2022/09/11 08:57:06;;;;;;;3.92;3.10;;;;;;;19.49;70.00;99204.81;4895772;29;20078;-70
2022/09/11 09:00:05;;;;;;;3.45;3.15;;;;;;;19.50;70.10;99199.19;4895983;29;20055;-69
2022/09/11 09:03:13;;;;;;;5.53;3.95;;;;;;;19.52;68.79;99202.47;4895588;29;20047;-70
2022/09/11 09:06:03;;;;;;;;;;;;;;;19.53;68.80;99200.59;4895948;29;20162;-68
2022/09/11 09:08:49;;;;;;;3.47;3.17;;;;;;;19.61;68.22;99205.59;4895555;29;19931;-70
2022/09/11 09:11:27;;;;;;;2.33;2.13;;;;;;;19.74;68.18;99205.28;4895637;29;20075;-68
2022/09/11 09:14:05;;;;;;;2.70;2.50;;;;;;;19.91;67.22;99210.66;4895684;29;20049;-70
2022/09/11 09:16:49;;;;;;;2.45;2.25;;;;;;;20.07;66.41;99206.34;4895832;29;20488;-70
2022/09/11 09:19:24;;;;;;;2.03;1.75;;;;;;;20.20;66.31;99206.00;4895314;29;20100;-69
2022/09/11 09:22:12;;;;;;;2.45;2.25;;;;;;;20.39;65.88;99203.06;4880171;29;20072;-69
2022/09/11 09:24:47;;;;;;;1.80;1.70;;;;;;;20.57;65.11;99204.69;4895372;29;20049;-69
2022/09/11 09:27:18;;;;;;;2.17;2.08;;;;;;;20.80;64.88;99212.50;4895198;29;20056;-69
2022/09/11 09:29:51;;;;;;;2.67;1.88;;;;;;;21.04;64.25;99202.31;4879808;29;20075;-69
2022/09/11 09:32:27;;;;;;;1.60;1.50;;;;;;;21.29;63.43;99201.78;4895244;29;20048;-69
2022/09/11 09:34:58;;;;;;;1.70;1.60;;;;;;;21.51;63.18;99202.63;4895271;29;20135;-68
2022/09/11 09:37:27;;;;;;;1.80;1.70;;;;;;;21.75;62.43;99200.38;4895291;29;20059;-69
2022/09/11 09:39:55;;;;;;;1.38;1.38;;;;;;;21.95;61.45;99202.44;4895519;29;20052;-68
2022/09/11 09:42:31;;;;;;;2.50;2.30;;;;;;;21.93;60.25;99199.22;4895431;29;20053;-69
2022/09/11 09:45:16;;;;;;;3.15;2.20;;;;;;;21.86;60.24;99197.78;4898571;29;20048;-69
2022/09/11 09:47:43;;;;;;;2.92;2.00;;;;;;;21.81;60.14;99197.75;4899619;29;20505;-69
2022/09/11 09:50:25;;;;;;;2.55;1.73;;;;;;;21.75;59.80;99195.00;4899700;29;20508;-69
2022/09/11 09:53:03;;;;;;;1.80;1.70;;;;;;;21.69;59.60;99195.22;4899887;29;20041;-69
2022/09/11 09:55:31;;;;;;;2.25;2.15;;;;;;;21.61;59.26;99193.00;4899786;29;20525;-69
2022/09/11 09:57:58;;;;;;;1.90;1.80;;;;;;;21.60;58.90;99192.19;4899589;29;20044;-69
2022/09/11 10:00:24;;;;;;;1.73;1.60;;;;;;;21.61;58.80;99188.44;4899757;29;20474;-68
2022/09/11 10:02:53;;;;;;;2.00;1.60;;;;;;;21.78;58.46;99185.63;4898045;29;20056;-67
2022/09/11 10:05:39;;;;;;;1.83;1.40;;;;;;;21.86;58.43;99181.66;4898587;29;20063;-69
2022/09/11 10:08:25;;;;;;;1.60;1.50;;;;;;;22.00;57.79;99193.59;4899489;29;20056;-69
2022/09/11 10:10:57;;;;;;;2.03;1.77;;;;;;;22.13;57.40;99193.19;4899650;29;20457;-67
2022/09/11 10:13:27;;;;;;;1.70;1.60;;;;;;;22.22;56.42;99188.94;4899523;29;20462;-68
2022/09/11 10:16:00;;;;;;;2.17;1.63;;;;;;;22.27;55.96;99190.06;4915880;23;20501;-66
2022/09/11 10:18:42;;;;;;;1.90;1.67;;;;;;;22.30;55.62;99190.34;4899692;29;20384;-68
2022/09/11 10:21:12;;;;;;;2.90;1.60;;;;;;;22.34;55.49;99187.94;4880162;29;20080;-67
2022/09/11 10:23:49;;;;;;;1.83;1.70;;;;;;;22.37;55.30;99190.09;4881032;29;20049;-67
2022/09/11 10:26:38;;;;;;;1.63;1.52;;;;;;;22.37;54.87;99190.09;4879340;29;20056;-66
2022/09/11 10:29:23;;;;;;;1.70;1.60;;;;;;;22.36;54.95;99181.22;4879576;29;20052;-66
2022/09/11 10:31:53;;;;;;;1.83;1.33;;;;;;;22.38;54.53;99179.09;4881804;29;20113;-66
2022/09/11 10:34:22;;;;;;;1.77;1.50;;;;;;;22.37;54.41;99176.63;4906177;29;20403;-67
2022/09/11 10:36:52;;;;;;;1.83;1.27;;;;;;;22.41;54.37;99177.72;4882683;29;20115;-66
2022/09/11 10:39:20;;;;;;;1.25;1.15;;;;;;;22.62;53.97;99184.88;4899392;29;20052;-66
2022/09/11 10:41:49;;;;;;;1.48;1.38;;;;;;;22.81;53.61;99182.50;4899276;29;20132;-66
2022/09/11 10:44:17;;;;;;;1.10;1.10;;;;;;;22.90;52.95;99181.00;4899207;29;20040;-65
2022/09/11 10:46:44;;;;;;;1.25;1.25;;;;;;;22.86;52.63;99185.25;4897803;29;20048;-67
2022/09/11 10:49:22;;;;;;;1.30;1.20;;;;;;;22.85;51.75;99180.09;4897865;29;20076;-65
2022/09/11 10:52:07;;;;;;;1.67;1.48;;;;;;;22.99;51.11;99175.91;4899092;29;20044;-66
2022/09/11 10:55:01;;;;;;;1.30;1.20;;;;;;;23.23;51.51;99176.22;4898234;29;20049;-66
2022/09/11 10:57:40;;;;;;;1.02;0.82;;;;;;;23.44;51.00;99171.69;4881994;29;20045;-66
2022/09/11 11:00:22;;;;;;;1.33;1.10;;;;;;;23.53;50.86;99169.25;4897836;29;20045;-66
2022/09/11 11:03:16;;;;;;;1.10;1.10;;;;;;;23.52;50.76;99159.56;4899412;29;20454;-66
2022/09/11 11:05:45;;;;;;;1.30;1.20;;;;;;;23.40;50.62;99173.28;4900638;29;20055;-67
2022/09/11 11:08:49;;;;;;;1.60;1.50;;;;;;;23.35;50.49;99167.88;4897291;29;20554;-69
2022/09/11 11:11:32;;;;;;;1.40;1.30;;;;;;;23.32;50.81;99163.03;4897214;29;20493;-67
2022/09/11 11:14:20;;;;;;;1.20;1.10;;;;;;;23.44;50.60;99169.78;4897172;29;20048;-67
2022/09/11 11:17:14;;;;;;;1.10;1.00;;;;;;;23.56;50.04;99174.13;4898297;29;20048;-67
2022/09/11 11:20:10;;;;;;;1.40;1.10;;;;;;;23.66;50.01;99163.34;4897335;29;20409;-68
2022/09/11 11:23:30;;;;;;;1.42;1.33;;;;;;;23.77;49.03;99159.59;4897429;29;20053;-68
2022/09/11 11:26:04;;;;;;;1.30;1.20;;;;;;;23.86;48.40;99162.56;4810398;29;20057;-68
2022/09/11 11:28:48;;;;;;;0.85;0.85;;;;;;;24.01;48.56;99162.53;4840665;29;20058;-68
2022/09/11 11:31:18;;;;;;;1.20;1.10;;;;;;;24.20;47.87;99160.88;4870581;29;20084;-68
2022/09/11 11:34:22;;;;;;;0.88;0.88;;;;;;;24.18;47.71;99152.25;4906327;29;20045;-68
2022/09/11 11:37:11;;;;;;;1.00;1.00;;;;;;;24.34;47.08;99157.63;4917062;29;20481;-68
2022/09/11 11:39:53;;;;;;;0.95;0.90;;;;;;;24.46;46.77;99158.97;4916835;29;20056;-68
2022/09/11 11:42:28;;;;;;;1.08;0.93;;;;;;;24.53;46.50;99155.97;4900084;29;20107;-68
2022/09/11 11:45:04;;;;;;;1.25;0.77;;;;;;;24.58;46.32;99161.38;4915732;29;20043;-67
2022/09/11 11:47:36;;;;;;;1.90;0.90;;;;;;;24.68;46.06;99157.81;4915548;29;20058;-68
2022/09/11 11:50:27;;;;;;;0.70;0.70;;;;;;;24.56;45.65;99160.81;4916715;29;20076;-68
2022/09/11 11:53:18;;;;;;;1.70;0.90;;;;;;;24.65;45.43;99161.06;4901064;29;20116;-68
2022/09/11 11:56:01;;;;;;;1.40;1.30;;;;;;;24.67;45.11;99153.50;4915786;29;20504;-68
2022/09/11 11:58:40;;;;;;;2.60;2.03;;;;;;;24.69;45.22;99146.72;4900705;29;20504;-68
2022/09/11 12:01:21;;;;;;;2.75;1.80;;;;;;;24.66;45.00;99152.69;4916164;29;20416;-69
2022/09/11 12:04:08;;;;;;;1.95;1.40;;;;;;;24.48;45.34;99153.28;4891340;29;20147;-69
2022/09/11 12:06:35;;;;;;;1.25;1.15;;;;;;;24.28;45.34;99161.41;4895845;29;20120;-69